sensor_id;sensor_type;location;lat;lon;timestamp;P1;durP1;ratioP1;P2;durP2;ratioP2
12356;SDS011;6243;51.244;6.774;2023-04-29T00:00:57;15.93;;;13.23;;
12356;SDS011;6243;51.244;6.774;2023-04-29T00:03:23;15.17;;;13.07;;
12356;SDS011;6243;51.244;6.774;2023-04-29T00:05:48;16.30;;;13.57;;
12356;SDS011;6243;51.244;6.774;2023-04-29T00:08:13;18.00;;;14.07;;
12356;SDS011;6243;51.244;6.774;2023-04-29T00:10:39;20.57;;;16.07;;
12356;SDS011;6243;51.244;6.774;2023-04-29T00:13:04;21.47;;;17.50;;
12356;SDS011;6243;51.244;6.774;2023-04-29T00:15:30;24.53;;;20.07;;
12356;SDS011;6243;51.244;6.774;2023-04-29T00:17:57;25.47;;;21.33;;
12356;SDS011;6243;51.244;6.774;2023-04-29T00:20:22;24.07;;;19.37;;
12356;SDS011;6243;51.244;6.774;2023-04-29T00:22:48;28.10;;;21.40;;
12356;SDS011;6243;51.244;6.774;2023-04-29T00:25:13;31.33;;;24.23;;
12356;SDS011;6243;51.244;6.774;2023-04-29T00:27:39;28.03;;;22.23;;
12356;SDS011;6243;51.244;6.774;2023-04-29T00:30:05;29.00;;;22.87;;
12356;SDS011;6243;51.244;6.774;2023-04-29T00:32:31;30.23;;;24.23;;
12356;SDS011;6243;51.244;6.774;2023-04-29T00:34:58;31.23;;;24.13;;
12356;SDS011;6243;51.244;6.774;2023-04-29T00:37:24;31.83;;;24.57;;
12356;SDS011;6243;51.244;6.774;2023-04-29T00:39:49;30.37;;;23.97;;
12356;SDS011;6243;51.244;6.774;2023-04-29T00:42:15;32.03;;;25.37;;
12356;SDS011;6243;51.244;6.774;2023-04-29T00:44:40;33.13;;;25.80;;
12356;SDS011;6243;51.244;6.774;2023-04-29T00:47:06;38.10;;;28.83;;
12356;SDS011;6243;51.244;6.774;2023-04-29T00:49:31;41.07;;;29.43;;
12356;SDS011;6243;51.244;6.774;2023-04-29T00:51:58;39.20;;;30.03;;
12356;SDS011;6243;51.244;6.774;2023-04-29T00:54:25;39.20;;;29.60;;
12356;SDS011;6243;51.244;6.774;2023-04-29T00:56:50;39.43;;;30.20;;
12356;SDS011;6243;51.244;6.774;2023-04-29T00:59:16;42.37;;;30.57;;
12356;SDS011;6243;51.244;6.774;2023-04-29T01:01:42;38.60;;;29.30;;
12356;SDS011;6243;51.244;6.774;2023-04-29T01:04:08;43.23;;;31.23;;
12356;SDS011;6243;51.244;6.774;2023-04-29T01:06:36;40.30;;;30.97;;
12356;SDS011;6243;51.244;6.774;2023-04-29T01:09:19;40.07;;;30.83;;
12356;SDS011;6243;51.244;6.774;2023-04-29T01:11:54;39.77;;;30.77;;
12356;SDS011;6243;51.244;6.774;2023-04-29T01:14:30;41.27;;;30.77;;
12356;SDS011;6243;51.244;6.774;2023-04-29T01:16:58;40.17;;;29.73;;
12356;SDS011;6243;51.244;6.774;2023-04-29T01:19:32;44.07;;;32.20;;
12356;SDS011;6243;51.244;6.774;2023-04-29T01:22:03;41.53;;;31.10;;
12356;SDS011;6243;51.244;6.774;2023-04-29T01:24:30;45.20;;;30.47;;
12356;SDS011;6243;51.244;6.774;2023-04-29T01:26:56;43.77;;;30.50;;
12356;SDS011;6243;51.244;6.774;2023-04-29T01:29:27;41.50;;;29.43;;
12356;SDS011;6243;51.244;6.774;2023-04-29T01:32:01;46.30;;;32.70;;
12356;SDS011;6243;51.244;6.774;2023-04-29T01:34:30;44.33;;;31.13;;
12356;SDS011;6243;51.244;6.774;2023-04-29T01:37:04;45.13;;;31.30;;
12356;SDS011;6243;51.244;6.774;2023-04-29T01:39:37;48.30;;;33.90;;
12356;SDS011;6243;51.244;6.774;2023-04-29T01:42:13;49.70;;;32.77;;
12356;SDS011;6243;51.244;6.774;2023-04-29T01:44:46;50.10;;;32.87;;
12356;SDS011;6243;51.244;6.774;2023-04-29T01:47:15;51.50;;;33.17;;
12356;SDS011;6243;51.244;6.774;2023-04-29T01:49:40;52.70;;;32.47;;
12356;SDS011;6243;51.244;6.774;2023-04-29T01:52:06;54.83;;;34.03;;
12356;SDS011;6243;51.244;6.774;2023-04-29T01:54:31;51.23;;;33.13;;
12356;SDS011;6243;51.244;6.774;2023-04-29T01:56:58;55.20;;;35.83;;
12356;SDS011;6243;51.244;6.774;2023-04-29T01:59:24;55.23;;;32.97;;
12356;SDS011;6243;51.244;6.774;2023-04-29T02:01:49;49.30;;;32.20;;
12356;SDS011;6243;51.244;6.774;2023-04-29T02:04:15;47.97;;;32.03;;
12356;SDS011;6243;51.244;6.774;2023-04-29T02:06:40;48.30;;;31.80;;
12356;SDS011;6243;51.244;6.774;2023-04-29T02:09:06;49.67;;;32.83;;
12356;SDS011;6243;51.244;6.774;2023-04-29T02:11:31;50.83;;;33.53;;
12356;SDS011;6243;51.244;6.774;2023-04-29T02:13:58;53.27;;;32.80;;
12356;SDS011;6243;51.244;6.774;2023-04-29T02:16:24;54.63;;;32.93;;
12356;SDS011;6243;51.244;6.774;2023-04-29T02:18:49;48.33;;;31.00;;
12356;SDS011;6243;51.244;6.774;2023-04-29T02:21:15;48.27;;;30.83;;
12356;SDS011;6243;51.244;6.774;2023-04-29T02:23:40;44.43;;;29.13;;
12356;SDS011;6243;51.244;6.774;2023-04-29T02:26:06;48.87;;;30.13;;
12356;SDS011;6243;51.244;6.774;2023-04-29T02:28:31;42.17;;;27.93;;
12356;SDS011;6243;51.244;6.774;2023-04-29T02:30:58;39.67;;;26.63;;
12356;SDS011;6243;51.244;6.774;2023-04-29T02:33:23;38.23;;;26.40;;
12356;SDS011;6243;51.244;6.774;2023-04-29T02:35:49;38.53;;;26.23;;
12356;SDS011;6243;51.244;6.774;2023-04-29T02:38:14;42.30;;;27.47;;
12356;SDS011;6243;51.244;6.774;2023-04-29T02:40:40;40.97;;;25.67;;
12356;SDS011;6243;51.244;6.774;2023-04-29T02:43:06;40.33;;;25.53;;
12356;SDS011;6243;51.244;6.774;2023-04-29T02:45:32;37.93;;;24.30;;
12356;SDS011;6243;51.244;6.774;2023-04-29T02:47:59;39.80;;;26.23;;
12356;SDS011;6243;51.244;6.774;2023-04-29T02:50:24;37.07;;;25.97;;
12356;SDS011;6243;51.244;6.774;2023-04-29T02:52:50;42.10;;;26.70;;
12356;SDS011;6243;51.244;6.774;2023-04-29T02:55:15;43.17;;;27.20;;
12356;SDS011;6243;51.244;6.774;2023-04-29T02:57:41;43.50;;;27.37;;
12356;SDS011;6243;51.244;6.774;2023-04-29T03:00:07;41.03;;;26.93;;
12356;SDS011;6243;51.244;6.774;2023-04-29T03:02:33;42.50;;;27.47;;
12356;SDS011;6243;51.244;6.774;2023-04-29T03:05:00;45.23;;;28.20;;
12356;SDS011;6243;51.244;6.774;2023-04-29T03:07:25;44.33;;;29.03;;
12356;SDS011;6243;51.244;6.774;2023-04-29T03:09:51;45.47;;;28.93;;
12356;SDS011;6243;51.244;6.774;2023-04-29T03:12:16;43.27;;;28.10;;
12356;SDS011;6243;51.244;6.774;2023-04-29T03:14:42;45.10;;;27.43;;
12356;SDS011;6243;51.244;6.774;2023-04-29T03:17:07;45.10;;;29.53;;
12356;SDS011;6243;51.244;6.774;2023-04-29T03:19:33;43.37;;;29.03;;
12356;SDS011;6243;51.244;6.774;2023-04-29T03:22:00;47.43;;;28.90;;
12356;SDS011;6243;51.244;6.774;2023-04-29T03:24:25;44.83;;;29.50;;
12356;SDS011;6243;51.244;6.774;2023-04-29T03:26:51;44.23;;;28.93;;
12356;SDS011;6243;51.244;6.774;2023-04-29T03:29:16;41.93;;;27.70;;
12356;SDS011;6243;51.244;6.774;2023-04-29T03:31:42;45.17;;;30.10;;
12356;SDS011;6243;51.244;6.774;2023-04-29T03:34:07;42.70;;;29.43;;
12356;SDS011;6243;51.244;6.774;2023-04-29T03:36:33;43.23;;;29.03;;
12356;SDS011;6243;51.244;6.774;2023-04-29T03:39:00;43.13;;;29.23;;
12356;SDS011;6243;51.244;6.774;2023-04-29T03:41:26;47.47;;;29.73;;
12356;SDS011;6243;51.244;6.774;2023-04-29T03:43:51;40.50;;;27.20;;
12356;SDS011;6243;51.244;6.774;2023-04-29T03:46:17;40.77;;;28.47;;
12356;SDS011;6243;51.244;6.774;2023-04-29T03:48:42;42.17;;;27.77;;
12356;SDS011;6243;51.244;6.774;2023-04-29T03:51:08;40.37;;;27.83;;
12356;SDS011;6243;51.244;6.774;2023-04-29T03:53:33;40.77;;;28.90;;
12356;SDS011;6243;51.244;6.774;2023-04-29T03:56:00;40.17;;;27.07;;
12356;SDS011;6243;51.244;6.774;2023-04-29T03:58:26;40.73;;;26.53;;
12356;SDS011;6243;51.244;6.774;2023-04-29T04:00:52;39.77;;;27.37;;
12356;SDS011;6243;51.244;6.774;2023-04-29T04:03:17;39.93;;;27.27;;
12356;SDS011;6243;51.244;6.774;2023-04-29T04:05:43;35.53;;;25.10;;
12356;SDS011;6243;51.244;6.774;2023-04-29T04:08:08;34.57;;;24.60;;
12356;SDS011;6243;51.244;6.774;2023-04-29T04:10:34;34.70;;;23.17;;
12356;SDS011;6243;51.244;6.774;2023-04-29T04:13:01;34.23;;;23.00;;
12356;SDS011;6243;51.244;6.774;2023-04-29T04:15:26;29.90;;;22.17;;
12356;SDS011;6243;51.244;6.774;2023-04-29T04:17:52;31.50;;;22.10;;
12356;SDS011;6243;51.244;6.774;2023-04-29T04:20:17;31.70;;;22.97;;
12356;SDS011;6243;51.244;6.774;2023-04-29T04:22:43;29.33;;;21.50;;
12356;SDS011;6243;51.244;6.774;2023-04-29T04:25:08;30.03;;;21.27;;
12356;SDS011;6243;51.244;6.774;2023-04-29T04:27:34;29.90;;;21.43;;
12356;SDS011;6243;51.244;6.774;2023-04-29T04:30:01;28.70;;;21.23;;
12356;SDS011;6243;51.244;6.774;2023-04-29T04:32:27;28.10;;;20.33;;
12356;SDS011;6243;51.244;6.774;2023-04-29T04:34:52;25.83;;;19.37;;
12356;SDS011;6243;51.244;6.774;2023-04-29T04:37:18;27.83;;;19.30;;
12356;SDS011;6243;51.244;6.774;2023-04-29T04:39:43;30.20;;;20.07;;
12356;SDS011;6243;51.244;6.774;2023-04-29T04:42:09;25.70;;;19.03;;
12356;SDS011;6243;51.244;6.774;2023-04-29T04:44:34;24.73;;;17.77;;
12356;SDS011;6243;51.244;6.774;2023-04-29T04:47:01;22.57;;;17.57;;
12356;SDS011;6243;51.244;6.774;2023-04-29T04:49:27;24.90;;;17.93;;
12356;SDS011;6243;51.244;6.774;2023-04-29T04:51:52;26.50;;;18.40;;
12356;SDS011;6243;51.244;6.774;2023-04-29T04:54:18;22.73;;;16.47;;
12356;SDS011;6243;51.244;6.774;2023-04-29T04:56:44;21.73;;;16.87;;
12356;SDS011;6243;51.244;6.774;2023-04-29T04:59:09;21.80;;;15.63;;
12356;SDS011;6243;51.244;6.774;2023-04-29T05:01:35;23.27;;;16.80;;
12356;SDS011;6243;51.244;6.774;2023-04-29T05:04:02;22.00;;;15.90;;
12356;SDS011;6243;51.244;6.774;2023-04-29T05:06:27;19.23;;;15.10;;
12356;SDS011;6243;51.244;6.774;2023-04-29T05:08:53;19.07;;;15.03;;
12356;SDS011;6243;51.244;6.774;2023-04-29T05:11:19;23.00;;;15.77;;
12356;SDS011;6243;51.244;6.774;2023-04-29T05:13:45;21.47;;;15.87;;
12356;SDS011;6243;51.244;6.774;2023-04-29T05:16:11;19.57;;;14.23;;
12356;SDS011;6243;51.244;6.774;2023-04-29T05:18:36;20.23;;;14.77;;
12356;SDS011;6243;51.244;6.774;2023-04-29T05:21:03;19.27;;;14.63;;
12356;SDS011;6243;51.244;6.774;2023-04-29T05:23:29;20.03;;;15.67;;
12356;SDS011;6243;51.244;6.774;2023-04-29T05:25:55;18.63;;;14.67;;
12356;SDS011;6243;51.244;6.774;2023-04-29T05:28:20;21.93;;;15.07;;
12356;SDS011;6243;51.244;6.774;2023-04-29T05:30:45;20.17;;;15.77;;
12356;SDS011;6243;51.244;6.774;2023-04-29T05:33:14;19.23;;;15.50;;
12356;SDS011;6243;51.244;6.774;2023-04-29T05:35:40;20.27;;;16.10;;
12356;SDS011;6243;51.244;6.774;2023-04-29T05:38:06;22.07;;;17.03;;
12356;SDS011;6243;51.244;6.774;2023-04-29T05:40:32;19.70;;;15.53;;
12356;SDS011;6243;51.244;6.774;2023-04-29T05:42:57;21.13;;;15.83;;
12356;SDS011;6243;51.244;6.774;2023-04-29T05:45:23;20.30;;;16.07;;
12356;SDS011;6243;51.244;6.774;2023-04-29T05:47:48;21.13;;;15.80;;
12356;SDS011;6243;51.244;6.774;2023-04-29T05:50:14;21.93;;;16.50;;
12356;SDS011;6243;51.244;6.774;2023-04-29T05:52:39;21.97;;;16.83;;
12356;SDS011;6243;51.244;6.774;2023-04-29T05:55:06;19.93;;;16.13;;
12356;SDS011;6243;51.244;6.774;2023-04-29T05:57:32;21.10;;;15.67;;
12356;SDS011;6243;51.244;6.774;2023-04-29T05:59:58;21.20;;;16.13;;
12356;SDS011;6243;51.244;6.774;2023-04-29T06:02:23;21.70;;;16.50;;
12356;SDS011;6243;51.244;6.774;2023-04-29T06:04:49;19.63;;;16.67;;
12356;SDS011;6243;51.244;6.774;2023-04-29T06:07:14;21.83;;;17.10;;
12356;SDS011;6243;51.244;6.774;2023-04-29T06:09:40;21.10;;;16.50;;
12356;SDS011;6243;51.244;6.774;2023-04-29T06:12:07;20.97;;;16.67;;
12356;SDS011;6243;51.244;6.774;2023-04-29T06:14:33;21.63;;;17.00;;
12356;SDS011;6243;51.244;6.774;2023-04-29T06:16:58;22.17;;;16.27;;
12356;SDS011;6243;51.244;6.774;2023-04-29T06:19:24;19.43;;;15.50;;
12356;SDS011;6243;51.244;6.774;2023-04-29T06:21:49;20.43;;;16.80;;
12356;SDS011;6243;51.244;6.774;2023-04-29T06:24:15;20.67;;;15.60;;
12356;SDS011;6243;51.244;6.774;2023-04-29T06:26:41;20.33;;;15.47;;
12356;SDS011;6243;51.244;6.774;2023-04-29T06:29:08;18.83;;;15.40;;
12356;SDS011;6243;51.244;6.774;2023-04-29T06:31:33;19.70;;;15.23;;
12356;SDS011;6243;51.244;6.774;2023-04-29T06:33:59;21.57;;;16.60;;
12356;SDS011;6243;51.244;6.774;2023-04-29T06:36:24;18.27;;;14.37;;
12356;SDS011;6243;51.244;6.774;2023-04-29T06:38:50;20.03;;;15.60;;
12356;SDS011;6243;51.244;6.774;2023-04-29T06:41:15;20.50;;;15.40;;
12356;SDS011;6243;51.244;6.774;2023-04-29T06:43:40;19.50;;;13.77;;
12356;SDS011;6243;51.244;6.774;2023-04-29T06:46:07;18.10;;;14.63;;
12356;SDS011;6243;51.244;6.774;2023-04-29T06:48:33;21.70;;;14.67;;
12356;SDS011;6243;51.244;6.774;2023-04-29T06:50:58;18.50;;;15.50;;
12356;SDS011;6243;51.244;6.774;2023-04-29T06:53:24;19.07;;;14.63;;
12356;SDS011;6243;51.244;6.774;2023-04-29T06:55:50;19.57;;;14.97;;
12356;SDS011;6243;51.244;6.774;2023-04-29T06:58:15;19.30;;;15.17;;
12356;SDS011;6243;51.244;6.774;2023-04-29T07:00:43;19.67;;;14.47;;
12356;SDS011;6243;51.244;6.774;2023-04-29T07:03:10;16.90;;;14.07;;
12356;SDS011;6243;51.244;6.774;2023-04-29T07:05:36;18.20;;;14.50;;
12356;SDS011;6243;51.244;6.774;2023-04-29T07:08:02;18.77;;;13.67;;
12356;SDS011;6243;51.244;6.774;2023-04-29T07:10:27;18.47;;;13.93;;
12356;SDS011;6243;51.244;6.774;2023-04-29T07:12:53;18.13;;;13.80;;
12356;SDS011;6243;51.244;6.774;2023-04-29T07:15:18;16.73;;;13.77;;
12356;SDS011;6243;51.244;6.774;2023-04-29T07:17:44;19.20;;;14.83;;
12356;SDS011;6243;51.244;6.774;2023-04-29T07:20:11;15.23;;;13.27;;
12356;SDS011;6243;51.244;6.774;2023-04-29T07:22:37;16.27;;;13.50;;
12356;SDS011;6243;51.244;6.774;2023-04-29T07:25:03;17.87;;;14.40;;
12356;SDS011;6243;51.244;6.774;2023-04-29T07:27:29;16.50;;;13.53;;
12356;SDS011;6243;51.244;6.774;2023-04-29T07:29:54;17.73;;;13.60;;
12356;SDS011;6243;51.244;6.774;2023-04-29T07:32:19;16.77;;;14.03;;
12356;SDS011;6243;51.244;6.774;2023-04-29T07:34:45;18.10;;;14.43;;
12356;SDS011;6243;51.244;6.774;2023-04-29T07:37:12;17.77;;;13.67;;
12356;SDS011;6243;51.244;6.774;2023-04-29T07:39:37;14.87;;;12.70;;
12356;SDS011;6243;51.244;6.774;2023-04-29T07:42:03;15.27;;;13.23;;
12356;SDS011;6243;51.244;6.774;2023-04-29T07:44:28;14.17;;;11.93;;
12356;SDS011;6243;51.244;6.774;2023-04-29T07:46:54;16.53;;;12.20;;
12356;SDS011;6243;51.244;6.774;2023-04-29T07:49:19;16.07;;;12.40;;
12356;SDS011;6243;51.244;6.774;2023-04-29T07:51:45;13.97;;;12.23;;
12356;SDS011;6243;51.244;6.774;2023-04-29T07:54:12;14.07;;;12.27;;
12356;SDS011;6243;51.244;6.774;2023-04-29T07:56:37;15.73;;;12.43;;
12356;SDS011;6243;51.244;6.774;2023-04-29T07:59:03;15.23;;;12.00;;
12356;SDS011;6243;51.244;6.774;2023-04-29T08:01:28;15.10;;;11.97;;
12356;SDS011;6243;51.244;6.774;2023-04-29T08:03:54;13.57;;;12.00;;
12356;SDS011;6243;51.244;6.774;2023-04-29T08:06:19;17.00;;;12.97;;
12356;SDS011;6243;51.244;6.774;2023-04-29T08:08:44;14.33;;;12.10;;
12356;SDS011;6243;51.244;6.774;2023-04-29T08:11:15;15.80;;;13.03;;
12356;SDS011;6243;51.244;6.774;2023-04-29T08:13:41;15.87;;;13.00;;
12356;SDS011;6243;51.244;6.774;2023-04-29T08:16:07;17.63;;;12.73;;
12356;SDS011;6243;51.244;6.774;2023-04-29T08:18:32;15.27;;;12.27;;
12356;SDS011;6243;51.244;6.774;2023-04-29T08:20:58;15.37;;;11.93;;
12356;SDS011;6243;51.244;6.774;2023-04-29T08:23:23;16.50;;;13.10;;
12356;SDS011;6243;51.244;6.774;2023-04-29T08:25:49;16.90;;;12.83;;
12356;SDS011;6243;51.244;6.774;2023-04-29T08:28:16;14.37;;;12.60;;
12356;SDS011;6243;51.244;6.774;2023-04-29T08:30:41;15.60;;;12.90;;
12356;SDS011;6243;51.244;6.774;2023-04-29T08:33:07;17.30;;;13.53;;
12356;SDS011;6243;51.244;6.774;2023-04-29T08:35:32;15.43;;;13.30;;
12356;SDS011;6243;51.244;6.774;2023-04-29T08:37:58;14.83;;;13.20;;
12356;SDS011;6243;51.244;6.774;2023-04-29T08:40:23;14.97;;;12.67;;
12356;SDS011;6243;51.244;6.774;2023-04-29T08:42:49;15.70;;;12.97;;
12356;SDS011;6243;51.244;6.774;2023-04-29T08:45:17;14.30;;;12.00;;
12356;SDS011;6243;51.244;6.774;2023-04-29T08:47:47;16.90;;;13.83;;
12356;SDS011;6243;51.244;6.774;2023-04-29T08:50:14;16.30;;;13.30;;
12356;SDS011;6243;51.244;6.774;2023-04-29T08:52:39;17.37;;;13.43;;
12356;SDS011;6243;51.244;6.774;2023-04-29T08:55:05;18.97;;;14.93;;
12356;SDS011;6243;51.244;6.774;2023-04-29T08:57:34;19.83;;;15.03;;
12356;SDS011;6243;51.244;6.774;2023-04-29T09:00:00;18.67;;;14.87;;
12356;SDS011;6243;51.244;6.774;2023-04-29T09:02:28;16.07;;;14.37;;
12356;SDS011;6243;51.244;6.774;2023-04-29T09:04:54;19.70;;;16.00;;
12356;SDS011;6243;51.244;6.774;2023-04-29T09:07:29;21.30;;;16.07;;
12356;SDS011;6243;51.244;6.774;2023-04-29T09:09:55;16.87;;;14.27;;
12356;SDS011;6243;51.244;6.774;2023-04-29T09:12:21;19.80;;;15.87;;
12356;SDS011;6243;51.244;6.774;2023-04-29T09:14:47;17.50;;;14.37;;
12356;SDS011;6243;51.244;6.774;2023-04-29T09:17:12;23.67;;;16.53;;
12356;SDS011;6243;51.244;6.774;2023-04-29T09:19:39;20.90;;;16.13;;
12356;SDS011;6243;51.244;6.774;2023-04-29T09:22:06;19.63;;;15.77;;
12356;SDS011;6243;51.244;6.774;2023-04-29T09:24:31;21.40;;;16.53;;
12356;SDS011;6243;51.244;6.774;2023-04-29T09:26:57;20.40;;;17.37;;
12356;SDS011;6243;51.244;6.774;2023-04-29T09:29:23;20.63;;;16.70;;
12356;SDS011;6243;51.244;6.774;2023-04-29T09:31:49;20.33;;;16.10;;
12356;SDS011;6243;51.244;6.774;2023-04-29T09:34:15;23.23;;;17.47;;
12356;SDS011;6243;51.244;6.774;2023-04-29T09:36:43;19.63;;;16.07;;
12356;SDS011;6243;51.244;6.774;2023-04-29T09:39:09;20.77;;;17.43;;
12356;SDS011;6243;51.244;6.774;2023-04-29T09:41:40;21.73;;;18.23;;
12356;SDS011;6243;51.244;6.774;2023-04-29T09:44:07;23.13;;;18.57;;
12356;SDS011;6243;51.244;6.774;2023-04-29T09:46:33;25.67;;;20.70;;
12356;SDS011;6243;51.244;6.774;2023-04-29T09:48:59;26.60;;;20.80;;
12356;SDS011;6243;51.244;6.774;2023-04-29T09:51:25;25.17;;;20.03;;
12356;SDS011;6243;51.244;6.774;2023-04-29T09:53:52;24.70;;;20.30;;
12356;SDS011;6243;51.244;6.774;2023-04-29T09:56:17;28.17;;;20.50;;
12356;SDS011;6243;51.244;6.774;2023-04-29T09:58:43;24.60;;;20.50;;
12356;SDS011;6243;51.244;6.774;2023-04-29T10:01:08;24.37;;;20.53;;
12356;SDS011;6243;51.244;6.774;2023-04-29T10:03:35;26.97;;;21.03;;
12356;SDS011;6243;51.244;6.774;2023-04-29T10:06:02;26.17;;;19.93;;
12356;SDS011;6243;51.244;6.774;2023-04-29T10:08:29;23.27;;;19.80;;
12356;SDS011;6243;51.244;6.774;2023-04-29T10:10:56;24.03;;;19.57;;
12356;SDS011;6243;51.244;6.774;2023-04-29T10:13:24;22.73;;;18.90;;
12356;SDS011;6243;51.244;6.774;2023-04-29T10:15:51;25.20;;;20.27;;
12356;SDS011;6243;51.244;6.774;2023-04-29T10:18:25;26.63;;;19.90;;
12356;SDS011;6243;51.244;6.774;2023-04-29T10:20:58;25.40;;;20.27;;
12356;SDS011;6243;51.244;6.774;2023-04-29T10:23:26;27.37;;;20.00;;
12356;SDS011;6243;51.244;6.774;2023-04-29T10:25:51;26.30;;;21.20;;
12356;SDS011;6243;51.244;6.774;2023-04-29T10:28:20;27.80;;;21.43;;
12356;SDS011;6243;51.244;6.774;2023-04-29T10:30:49;26.77;;;21.50;;
12356;SDS011;6243;51.244;6.774;2023-04-29T10:33:15;26.90;;;20.77;;
12356;SDS011;6243;51.244;6.774;2023-04-29T10:35:43;27.40;;;20.90;;
12356;SDS011;6243;51.244;6.774;2023-04-29T10:38:10;28.23;;;21.77;;
12356;SDS011;6243;51.244;6.774;2023-04-29T10:40:41;31.83;;;24.00;;
12356;SDS011;6243;51.244;6.774;2023-04-29T10:43:09;29.53;;;23.47;;
12356;SDS011;6243;51.244;6.774;2023-04-29T10:45:36;31.83;;;25.37;;
12356;SDS011;6243;51.244;6.774;2023-04-29T10:48:11;33.60;;;25.50;;
12356;SDS011;6243;51.244;6.774;2023-04-29T10:50:58;30.80;;;24.13;;
12356;SDS011;6243;51.244;6.774;2023-04-29T10:53:26;31.13;;;25.27;;
12356;SDS011;6243;51.244;6.774;2023-04-29T10:55:53;32.03;;;24.60;;
12356;SDS011;6243;51.244;6.774;2023-04-29T10:58:33;29.40;;;24.07;;
12356;SDS011;6243;51.244;6.774;2023-04-29T11:01:02;28.57;;;22.37;;
12356;SDS011;6243;51.244;6.774;2023-04-29T11:06:15;28.57;;;24.30;;
12356;SDS011;6243;51.244;6.774;2023-04-29T11:08:41;30.30;;;24.63;;
12356;SDS011;6243;51.244;6.774;2023-04-29T11:11:06;29.93;;;24.07;;
12356;SDS011;6243;51.244;6.774;2023-04-29T11:13:32;30.00;;;25.47;;
12356;SDS011;6243;51.244;6.774;2023-04-29T11:16:04;31.17;;;25.57;;
12356;SDS011;6243;51.244;6.774;2023-04-29T11:18:31;31.93;;;25.90;;
12356;SDS011;6243;51.244;6.774;2023-04-29T11:21:12;31.67;;;26.37;;
12356;SDS011;6243;51.244;6.774;2023-04-29T11:23:37;29.17;;;25.37;;
12356;SDS011;6243;51.244;6.774;2023-04-29T11:26:04;32.20;;;26.23;;
12356;SDS011;6243;51.244;6.774;2023-04-29T11:28:30;28.37;;;24.67;;
12356;SDS011;6243;51.244;6.774;2023-04-29T11:30:57;35.67;;;28.27;;
12356;SDS011;6243;51.244;6.774;2023-04-29T11:33:25;38.60;;;28.03;;
12356;SDS011;6243;51.244;6.774;2023-04-29T11:35:51;38.30;;;30.90;;
12356;SDS011;6243;51.244;6.774;2023-04-29T11:38:17;39.70;;;31.33;;
12356;SDS011;6243;51.244;6.774;2023-04-29T11:40:48;39.67;;;31.33;;
12356;SDS011;6243;51.244;6.774;2023-04-29T11:43:15;35.27;;;29.63;;
12356;SDS011;6243;51.244;6.774;2023-04-29T11:45:43;31.50;;;28.10;;
12356;SDS011;6243;51.244;6.774;2023-04-29T11:48:09;31.40;;;26.00;;
12356;SDS011;6243;51.244;6.774;2023-04-29T11:50:42;28.03;;;25.03;;
12356;SDS011;6243;51.244;6.774;2023-04-29T11:53:09;29.90;;;25.30;;
12356;SDS011;6243;51.244;6.774;2023-04-29T11:55:34;33.17;;;27.97;;
12356;SDS011;6243;51.244;6.774;2023-04-29T11:58:00;35.00;;;29.63;;
12356;SDS011;6243;51.244;6.774;2023-04-29T12:00:25;33.57;;;29.97;;
12356;SDS011;6243;51.244;6.774;2023-04-29T12:02:51;34.83;;;30.70;;
12356;SDS011;6243;51.244;6.774;2023-04-29T12:05:17;31.07;;;27.80;;
12356;SDS011;6243;51.244;6.774;2023-04-29T12:07:44;29.33;;;26.43;;
12356;SDS011;6243;51.244;6.774;2023-04-29T12:10:10;30.20;;;27.00;;
12356;SDS011;6243;51.244;6.774;2023-04-29T12:12:36;30.53;;;26.43;;
12356;SDS011;6243;51.244;6.774;2023-04-29T12:15:02;29.70;;;26.40;;
12356;SDS011;6243;51.244;6.774;2023-04-29T12:17:28;39.00;;;32.80;;
12356;SDS011;6243;51.244;6.774;2023-04-29T12:19:54;32.23;;;28.90;;
12356;SDS011;6243;51.244;6.774;2023-04-29T12:22:20;35.90;;;32.00;;
12356;SDS011;6243;51.244;6.774;2023-04-29T12:24:47;33.00;;;29.63;;
12356;SDS011;6243;51.244;6.774;2023-04-29T12:27:12;31.97;;;28.40;;
12356;SDS011;6243;51.244;6.774;2023-04-29T12:29:38;28.23;;;25.23;;
12356;SDS011;6243;51.244;6.774;2023-04-29T12:32:04;27.77;;;24.90;;
12356;SDS011;6243;51.244;6.774;2023-04-29T12:34:30;29.43;;;25.60;;
12356;SDS011;6243;51.244;6.774;2023-04-29T12:36:57;27.43;;;24.77;;
12356;SDS011;6243;51.244;6.774;2023-04-29T12:39:23;27.00;;;24.23;;
12356;SDS011;6243;51.244;6.774;2023-04-29T12:41:54;28.67;;;25.67;;
12356;SDS011;6243;51.244;6.774;2023-04-29T12:44:22;26.43;;;23.67;;
12356;SDS011;6243;51.244;6.774;2023-04-29T12:46:47;28.50;;;25.53;;
12356;SDS011;6243;51.244;6.774;2023-04-29T12:49:13;29.87;;;26.37;;
12356;SDS011;6243;51.244;6.774;2023-04-29T12:51:38;29.57;;;26.47;;
12356;SDS011;6243;51.244;6.774;2023-04-29T12:54:04;24.90;;;22.30;;
12356;SDS011;6243;51.244;6.774;2023-04-29T12:56:30;26.70;;;23.63;;
12356;SDS011;6243;51.244;6.774;2023-04-29T12:59:02;25.47;;;22.87;;
12356;SDS011;6243;51.244;6.774;2023-04-29T13:01:29;27.27;;;24.47;;
12356;SDS011;6243;51.244;6.774;2023-04-29T13:03:54;24.07;;;21.57;;
12356;SDS011;6243;51.244;6.774;2023-04-29T13:06:20;26.43;;;23.77;;
12356;SDS011;6243;51.244;6.774;2023-04-29T13:08:45;24.50;;;22.20;;
12356;SDS011;6243;51.244;6.774;2023-04-29T13:11:11;27.20;;;24.47;;
12356;SDS011;6243;51.244;6.774;2023-04-29T13:13:36;25.80;;;23.13;;
12356;SDS011;6243;51.244;6.774;2023-04-29T13:16:04;23.93;;;21.43;;
12356;SDS011;6243;51.244;6.774;2023-04-29T13:18:30;24.47;;;22.00;;
12356;SDS011;6243;51.244;6.774;2023-04-29T13:20:56;26.80;;;24.10;;
12356;SDS011;6243;51.244;6.774;2023-04-29T13:23:21;25.27;;;22.73;;
12356;SDS011;6243;51.244;6.774;2023-04-29T13:25:47;25.67;;;23.27;;
12356;SDS011;6243;51.244;6.774;2023-04-29T13:28:14;26.17;;;23.47;;
12356;SDS011;6243;51.244;6.774;2023-04-29T13:30:40;25.57;;;23.07;;
12356;SDS011;6243;51.244;6.774;2023-04-29T13:33:07;27.37;;;24.33;;
12356;SDS011;6243;51.244;6.774;2023-04-29T13:35:32;25.50;;;22.97;;
12356;SDS011;6243;51.244;6.774;2023-04-29T13:37:58;28.40;;;25.47;;
12356;SDS011;6243;51.244;6.774;2023-04-29T13:40:24;27.23;;;24.60;;
12356;SDS011;6243;51.244;6.774;2023-04-29T13:42:49;28.00;;;25.30;;
12356;SDS011;6243;51.244;6.774;2023-04-29T13:45:15;28.77;;;25.87;;
12356;SDS011;6243;51.244;6.774;2023-04-29T13:47:40;28.77;;;25.97;;
12356;SDS011;6243;51.244;6.774;2023-04-29T13:50:08;27.50;;;24.60;;
12356;SDS011;6243;51.244;6.774;2023-04-29T13:52:33;28.93;;;26.00;;
12356;SDS011;6243;51.244;6.774;2023-04-29T13:54:59;30.47;;;27.37;;
12356;SDS011;6243;51.244;6.774;2023-04-29T13:57:25;30.13;;;27.23;;
12356;SDS011;6243;51.244;6.774;2023-04-29T13:59:50;31.00;;;27.70;;
12356;SDS011;6243;51.244;6.774;2023-04-29T14:02:16;28.53;;;25.53;;
12356;SDS011;6243;51.244;6.774;2023-04-29T14:04:41;26.80;;;24.00;;
12356;SDS011;6243;51.244;6.774;2023-04-29T14:07:08;27.80;;;25.10;;
12356;SDS011;6243;51.244;6.774;2023-04-29T14:09:34;27.80;;;25.00;;
12356;SDS011;6243;51.244;6.774;2023-04-29T14:11:59;22.40;;;20.10;;
12356;SDS011;6243;51.244;6.774;2023-04-29T14:14:25;20.50;;;18.30;;
12356;SDS011;6243;51.244;6.774;2023-04-29T14:16:50;19.57;;;17.60;;
12356;SDS011;6243;51.244;6.774;2023-04-29T14:19:16;21.00;;;17.73;;
12356;SDS011;6243;51.244;6.774;2023-04-29T14:21:42;18.43;;;16.43;;
12356;SDS011;6243;51.244;6.774;2023-04-29T14:24:08;15.83;;;14.13;;
12356;SDS011;6243;51.244;6.774;2023-04-29T14:26:34;14.53;;;12.40;;
12356;SDS011;6243;51.244;6.774;2023-04-29T14:28:59;13.60;;;12.07;;
12356;SDS011;6243;51.244;6.774;2023-04-29T14:31:25;15.07;;;13.47;;